Plaistow, New Hampshire
Current Conditions -  °F | °C
As of 4:54 AM on Saturday 22 Nov 2014 (Local Time) from KLWM Reporting Station
Clear Clear  
Wind Chill: 12°   Ceiling: Unl
Heat Index: 22°   Visibility: 10mi
Dew Point: 11°   Wind: 9mph
Humidity: 63%   Direction: 220°SW
Pressure: 30.41"   Gusts: NA
Location:  42.84°N, 71.09°W
Report Text: KLWM 220954Z AUTO 22008KT 10SM CLR M06/M12 A3041 RMK AO2 SLP300 T10561117
Loading
Personal Weather Stations






























Interactive Weather Map New forecast layout! Learn more

10-Day Weather Forecast

Advertisements
Track Severe Weather on mobile